createdAt,value
2022-08-04T00:00:39.969Z,2.20
2022-08-04T00:02:38.094Z,2.22
2022-08-04T00:04:26.516Z,2.25
2022-08-04T00:06:09.428Z,2.10
2022-08-04T00:07:52.783Z,1.98
2022-08-04T00:09:32.233Z,2.10
2022-08-04T00:11:04.908Z,2.15
2022-08-04T00:12:42.400Z,2.40
2022-08-04T00:14:16.720Z,2.40
2022-08-04T00:15:52.545Z,2.17
2022-08-04T00:17:30.851Z,2.28
2022-08-04T00:19:07.958Z,2.10
2022-08-04T00:20:42.454Z,2.30
2022-08-04T00:22:17.976Z,2.45
2022-08-04T00:24:12.014Z,2.60
2022-08-04T00:25:44.653Z,2.38
2022-08-04T00:27:16.545Z,2.50
2022-08-04T00:28:48.927Z,2.50
2022-08-04T00:30:20.952Z,2.80
2022-08-04T00:31:56.554Z,2.30
2022-08-04T00:33:30.357Z,3.00
2022-08-04T00:35:03.193Z,2.40
2022-08-04T00:36:35.106Z,2.38
2022-08-04T00:38:08.615Z,2.63
2022-08-04T00:39:40.771Z,2.65
2022-08-04T00:41:24.465Z,2.50
2022-08-04T00:43:18.037Z,2.40
2022-08-04T00:45:08.142Z,2.42
2022-08-04T00:47:10.293Z,2.47
2022-08-04T00:49:19.603Z,2.75
2022-08-04T00:51:00.393Z,2.70
2022-08-04T00:52:47.299Z,2.50
2022-08-04T00:54:41.919Z,2.92
2022-08-04T00:56:32.761Z,2.75
2022-08-04T00:58:23.230Z,2.78
2022-08-04T01:00:21.324Z,3.00
2022-08-04T01:02:00.419Z,2.30
2022-08-04T01:04:04.224Z,2.40
2022-08-04T01:06:09.348Z,2.70
2022-08-04T01:07:49.959Z,2.90
2022-08-04T01:09:49.135Z,2.42
2022-08-04T01:11:56.451Z,3.13
2022-08-04T01:13:53.473Z,3.08
2022-08-04T01:15:31.550Z,2.55
2022-08-04T01:17:41.343Z,2.90
2022-08-04T01:19:35.508Z,2.70
2022-08-04T01:21:31.481Z,2.60
2022-08-04T01:23:26.513Z,3.05
2022-08-04T01:25:19.919Z,2.42
2022-08-04T01:27:06.163Z,2.67
2022-08-04T01:29:01.103Z,2.70
2022-08-04T01:30:33.737Z,2.95
2022-08-04T01:32:13.213Z,2.30
2022-08-04T01:34:03.257Z,2.90
2022-08-04T01:35:48.280Z,2.55
2022-08-04T01:37:47.997Z,2.45
2022-08-04T01:39:39.644Z,2.58
2022-08-04T01:41:14.982Z,2.83
2022-08-04T01:42:49.328Z,2.72
2022-08-04T01:44:23.598Z,2.65
2022-08-04T01:46:00.694Z,2.40
2022-08-04T01:47:35.941Z,2.83
2022-08-04T01:49:08.025Z,2.83
2022-08-04T01:50:41.891Z,2.70
2022-08-04T01:52:16.374Z,3.03
2022-08-04T01:53:47.994Z,2.75
2022-08-04T01:55:20.809Z,2.53
2022-08-04T01:56:54.477Z,2.75
2022-08-04T01:58:30.574Z,2.90
2022-08-04T02:00:04.056Z,2.85
2022-08-04T02:01:37.126Z,2.90
2022-08-04T02:03:09.470Z,2.75
2022-08-04T02:04:41.813Z,2.50
2022-08-04T02:06:38.727Z,2.45
2022-08-04T02:08:19.233Z,3.10
2022-08-04T02:09:56.580Z,2.88
2022-08-04T02:11:29.407Z,2.45
2022-08-04T02:13:24.731Z,2.90
2022-08-04T02:15:10.115Z,2.70
2022-08-04T02:16:52.246Z,2.58
2022-08-04T02:18:32.335Z,2.45
2022-08-04T02:20:12.687Z,3.03
2022-08-04T02:21:48.452Z,2.88
2022-08-04T02:23:31.516Z,2.63
2022-08-04T02:25:11.185Z,2.88
2022-08-04T02:26:49.215Z,2.80
2022-08-04T02:28:35.574Z,2.85
2022-08-04T02:30:07.512Z,2.90
2022-08-04T02:31:56.196Z,2.72
2022-08-04T02:33:35.992Z,2.92
2022-08-04T02:35:12.012Z,2.85
2022-08-04T02:36:43.985Z,2.92
2022-08-04T02:38:35.173Z,2.65
2022-08-04T02:40:07.252Z,2.33
2022-08-04T02:41:40.208Z,2.50
2022-08-04T02:43:13.040Z,2.75
2022-08-04T02:44:57.638Z,2.72
2022-08-04T02:46:31.005Z,2.70
2022-08-04T02:48:28.641Z,3.05
2022-08-04T02:49:58.835Z,3.05
2022-08-04T02:51:38.155Z,2.70
2022-08-04T02:53:14.143Z,3.00
2022-08-04T02:54:49.041Z,2.80
2022-08-04T02:56:25.146Z,3.10
2022-08-04T02:57:59.356Z,2.55
2022-08-04T02:59:57.006Z,2.80
2022-08-04T03:01:29.570Z,2.70
2022-08-04T03:03:10.369Z,2.97
2022-08-04T03:05:06.208Z,2.80
2022-08-04T03:07:02.088Z,2.88
2022-08-04T03:08:52.289Z,2.80
2022-08-04T03:10:44.223Z,2.85
2022-08-04T03:12:18.492Z,2.83
2022-08-04T03:14:13.019Z,2.97
2022-08-04T03:16:03.205Z,2.67
2022-08-04T03:18:01.155Z,2.63
2022-08-04T03:19:53.857Z,2.75
2022-08-04T03:21:48.721Z,2.50
2022-08-04T03:23:22.998Z,2.72
2022-08-04T03:25:23.420Z,2.53
2022-08-04T03:27:16.858Z,2.95
2022-08-04T03:29:23.592Z,2.90
2022-08-04T03:31:35.112Z,2.80
2022-08-04T03:33:37.802Z,2.90
2022-08-04T03:35:51.107Z,2.50
2022-08-04T03:37:44.290Z,2.38
2022-08-04T03:39:31.143Z,2.67
2022-08-04T03:41:51.941Z,2.33
2022-08-04T03:43:57.115Z,2.60
2022-08-04T03:45:56.706Z,2.58
2022-08-04T03:47:49.564Z,2.72
2022-08-04T03:49:39.345Z,2.50
2022-08-04T03:51:50.742Z,3.15
2022-08-04T03:54:10.606Z,2.75
2022-08-04T03:56:10.578Z,3.00
2022-08-04T03:58:13.316Z,2.65
2022-08-04T03:59:50.430Z,3.00
2022-08-04T04:02:02.343Z,2.55
2022-08-04T04:04:08.702Z,2.80
2022-08-04T04:05:59.784Z,2.55
2022-08-04T04:08:01.723Z,2.60
2022-08-04T04:10:12.854Z,2.78
2022-08-04T04:13:59.940Z,2.42
2022-08-04T04:15:48.227Z,2.42
2022-08-04T04:17:53.385Z,2.75
2022-08-04T04:19:52.762Z,2.95
2022-08-04T04:21:43.000Z,2.38
2022-08-04T04:23:35.425Z,2.58
2022-08-04T04:25:16.179Z,2.60
2022-08-04T04:27:09.910Z,2.40
2022-08-04T04:29:04.206Z,2.60
2022-08-04T04:31:03.509Z,2.85
2022-08-04T04:33:07.839Z,2.60
2022-08-04T04:34:51.581Z,2.83
2022-08-04T04:36:52.504Z,2.42
2022-08-04T04:38:34.494Z,2.88
2022-08-04T04:40:39.494Z,2.67
2022-08-04T04:42:27.824Z,2.80
2022-08-04T04:44:14.279Z,2.28
2022-08-04T04:46:11.206Z,2.40
2022-08-04T04:48:08.490Z,2.78
2022-08-04T04:50:03.401Z,3.10
2022-08-04T04:51:44.534Z,3.45
2022-08-04T04:53:23.731Z,2.97
2022-08-04T04:55:10.423Z,3.15
2022-08-04T04:56:54.134Z,2.65
2022-08-04T04:58:27.059Z,2.70
2022-08-04T05:00:02.454Z,2.70
2022-08-04T05:01:47.440Z,2.70
2022-08-04T05:03:27.054Z,2.65
2022-08-04T05:05:08.001Z,3.13
2022-08-04T05:07:07.501Z,2.72
2022-08-04T05:09:04.978Z,2.60
2022-08-04T05:11:07.226Z,2.63
2022-08-04T05:14:34.997Z,3.00
2022-08-04T05:15:08.539Z,2.90
2022-08-04T05:16:51.142Z,2.95
2022-08-04T05:18:27.037Z,2.65
2022-08-04T05:20:19.142Z,2.78
2022-08-04T05:22:04.142Z,2.70
2022-08-04T05:23:40.590Z,2.80
2022-08-04T05:25:31.624Z,2.80
2022-08-04T05:27:08.770Z,2.70
2022-08-04T05:28:45.332Z,3.15
2022-08-04T05:30:19.984Z,2.40
2022-08-04T05:31:54.381Z,2.60
2022-08-04T05:33:31.255Z,2.33
2022-08-04T05:35:10.136Z,2.90
2022-08-04T05:36:51.732Z,2.40
2022-08-04T05:38:35.212Z,2.70
2022-08-04T05:40:08.668Z,2.50
2022-08-04T05:41:42.031Z,2.30
2022-08-04T05:43:19.677Z,2.55
2022-08-04T05:44:52.020Z,2.45
2022-08-04T05:46:24.932Z,2.28
2022-08-04T05:47:56.701Z,2.92
2022-08-04T05:49:29.501Z,2.30
2022-08-04T05:51:03.062Z,2.70
2022-08-04T05:52:36.522Z,2.05
2022-08-04T05:54:09.884Z,2.60
2022-08-04T05:55:56.652Z,2.30
2022-08-04T05:57:31.364Z,2.13
2022-08-04T05:59:04.880Z,2.40
2022-08-04T06:00:41.053Z,2.42
2022-08-04T06:02:16.753Z,2.35
2022-08-04T06:03:49.644Z,2.40
2022-08-04T06:05:22.818Z,2.30
2022-08-04T06:06:55.159Z,2.20
2022-08-04T06:08:26.998Z,2.22
2022-08-04T06:09:58.767Z,2.13
2022-08-04T06:11:30.912Z,2.10
2022-08-04T06:13:48.018Z,2.35
2022-08-04T06:15:25.267Z,2.38
2022-08-04T06:16:58.241Z,1.90
2022-08-04T06:18:35.253Z,2.33
2022-08-04T06:20:34.529Z,2.50
2022-08-04T06:22:09.054Z,2.35
2022-08-04T06:23:53.603Z,2.60
2022-08-04T06:25:36.651Z,1.92
2022-08-04T06:27:09.087Z,2.25
2022-08-04T06:28:42.605Z,2.15
2022-08-04T06:30:16.264Z,2.10
2022-08-04T06:32:28.051Z,2.17
2022-08-04T06:33:54.104Z,1.70
2022-08-04T06:35:27.310Z,2.30
2022-08-04T06:36:59.604Z,2.20
2022-08-04T06:38:32.644Z,2.08
2022-08-04T06:40:31.035Z,2.08
2022-08-04T06:42:21.896Z,1.98
2022-08-04T06:43:52.401Z,2.10
2022-08-04T06:45:24.737Z,2.13
2022-08-04T06:46:58.177Z,2.10
2022-08-04T06:48:33.751Z,2.22
2022-08-04T06:51:27.412Z,2.00
2022-08-04T06:52:01.927Z,1.98
2022-08-04T06:53:33.581Z,1.95
2022-08-04T06:55:07.804Z,2.00
2022-08-04T06:56:40.453Z,1.90
2022-08-04T06:58:12.801Z,1.70
2022-08-04T06:59:46.465Z,1.95
2022-08-04T07:01:20.161Z,1.90
2022-08-04T07:02:53.555Z,1.90
2022-08-04T07:04:25.486Z,1.90
2022-08-04T07:05:57.733Z,1.75
2022-08-04T07:07:36.531Z,1.80
2022-08-04T07:09:09.363Z,2.33
2022-08-04T07:10:41.304Z,1.90
2022-08-04T07:12:13.786Z,2.03
2022-08-04T07:13:46.610Z,1.63
2022-08-04T07:15:19.395Z,2.00
2022-08-04T07:16:51.919Z,1.88
2022-08-04T07:18:24.018Z,1.90
2022-08-04T07:19:56.847Z,2.08
2022-08-04T07:21:28.480Z,1.83
2022-08-04T07:23:01.874Z,1.80
2022-08-04T07:24:36.017Z,2.00
2022-08-04T07:26:12.997Z,1.70
2022-08-04T07:27:47.447Z,1.80
2022-08-04T07:29:21.059Z,1.90
2022-08-04T07:30:53.984Z,2.00
2022-08-04T07:32:26.599Z,2.00
2022-08-04T07:34:20.838Z,1.70
2022-08-04T07:36:05.091Z,2.00
2022-08-04T07:37:42.481Z,1.77
2022-08-04T07:39:21.869Z,1.77
2022-08-04T07:41:03.722Z,1.92
2022-08-04T07:42:35.805Z,2.00
2022-08-04T07:44:08.402Z,1.80
2022-08-04T07:45:40.135Z,2.67
2022-08-04T07:47:12.126Z,2.03
2022-08-04T07:48:44.024Z,1.70
2022-08-04T07:50:16.841Z,1.75
2022-08-04T07:51:49.180Z,1.42
2022-08-04T07:53:55.409Z,1.65
2022-08-04T07:55:13.654Z,1.50
2022-08-04T07:56:46.394Z,2.17
2022-08-04T07:58:18.056Z,1.88
2022-08-04T07:59:50.267Z,2.10
2022-08-04T08:01:25.264Z,1.73
2022-08-04T08:02:57.610Z,1.73
2022-08-04T08:04:30.465Z,1.85
2022-08-04T08:06:30.793Z,1.58
2022-08-04T08:07:55.049Z,1.88
2022-08-04T08:09:27.186Z,1.70
2022-08-04T08:10:59.025Z,1.80
2022-08-04T08:12:38.495Z,1.77
2022-08-04T08:14:24.067Z,1.45
2022-08-04T08:15:57.605Z,1.75
2022-08-04T08:17:29.284Z,1.70
2022-08-04T08:19:01.350Z,1.38
2022-08-04T08:20:33.378Z,1.92
2022-08-04T08:22:05.586Z,1.83
2022-08-04T08:23:38.375Z,1.92
2022-08-04T08:25:11.978Z,1.92
2022-08-04T08:26:43.706Z,1.88
2022-08-04T08:28:18.461Z,1.77
2022-08-04T08:29:50.128Z,1.75
2022-08-04T08:31:21.808Z,1.40
2022-08-04T08:33:15.536Z,1.50
2022-08-04T08:34:47.723Z,1.75
2022-08-04T08:36:38.092Z,1.33
2022-08-04T08:38:14.053Z,1.65
2022-08-04T08:40:08.618Z,1.50
2022-08-04T08:41:52.308Z,1.77
2022-08-04T08:44:06.034Z,1.50
2022-08-04T08:46:02.266Z,1.67
2022-08-04T08:48:05.113Z,1.38
2022-08-04T08:50:02.592Z,1.40
2022-08-04T08:52:57.419Z,1.42
2022-08-04T08:54:27.945Z,1.85
2022-08-04T08:56:30.983Z,1.38
2022-08-04T08:58:23.338Z,1.40
2022-08-04T09:00:16.608Z,1.40
2022-08-04T09:02:10.562Z,1.35
2022-08-04T09:04:31.625Z,1.30
2022-08-04T09:06:13.387Z,1.40
2022-08-04T09:08:01.452Z,1.23
2022-08-04T09:09:41.969Z,1.40
2022-08-04T09:13:02.558Z,1.20
2022-08-04T09:14:48.874Z,1.35
2022-08-04T09:16:38.701Z,1.20
2022-08-04T09:18:27.984Z,1.27
2022-08-04T09:20:07.316Z,1.20
2022-08-04T09:21:51.302Z,1.17
2022-08-04T09:23:48.830Z,1.42
2022-08-04T09:25:28.561Z,1.20
2022-08-04T09:27:16.664Z,1.17
2022-08-04T09:29:08.593Z,1.15
2022-08-04T09:30:56.710Z,0.90
2022-08-04T09:33:00.317Z,1.17
2022-08-04T09:34:44.410Z,0.95
2022-08-04T09:36:25.799Z,1.10
2022-08-04T09:38:06.761Z,1.05
2022-08-04T09:39:57.004Z,1.10
2022-08-04T09:41:53.766Z,1.40
2022-08-04T09:44:48.705Z,1.38
2022-08-04T09:46:13.625Z,1.30
2022-08-04T09:47:53.173Z,1.10
2022-08-04T09:49:36.539Z,1.00
2022-08-04T09:51:24.261Z,1.10
2022-08-04T09:53:36.573Z,1.20
2022-08-04T09:55:20.947Z,1.00
2022-08-04T09:57:14.321Z,1.60
2022-08-04T09:59:14.216Z,1.20
2022-08-04T10:00:58.220Z,1.05
2022-08-04T10:02:38.529Z,1.08
2022-08-04T10:04:14.668Z,0.85
2022-08-04T10:06:01.421Z,3.28
2022-08-04T10:07:59.717Z,1.20
2022-08-04T10:10:14.228Z,0.90
2022-08-04T10:11:55.352Z,0.95
2022-08-04T10:14:05.781Z,1.20
2022-08-04T10:15:51.692Z,1.10
2022-08-04T10:17:35.821Z,1.00
2022-08-04T10:19:28.769Z,1.27
2022-08-04T10:21:15.418Z,0.93
2022-08-04T10:23:12.306Z,1.02
2022-08-04T10:25:04.099Z,1.10
2022-08-04T10:26:58.429Z,0.85
2022-08-04T10:28:32.253Z,1.10
2022-08-04T10:30:12.104Z,1.10
2022-08-04T10:31:57.667Z,1.42
2022-08-04T10:33:37.165Z,1.20
2022-08-04T10:35:38.989Z,1.17
2022-08-04T10:37:59.157Z,1.10
2022-08-04T10:39:42.992Z,1.08
2022-08-04T10:41:30.326Z,0.95
2022-08-04T10:43:22.812Z,1.30
2022-08-04T10:45:19.309Z,1.17
2022-08-04T10:47:16.589Z,1.15
2022-08-04T10:49:00.099Z,1.25
2022-08-04T10:50:36.204Z,1.35
2022-08-04T10:52:22.764Z,1.20
2022-08-04T10:54:02.364Z,1.20
2022-08-04T10:56:06.814Z,1.30
2022-08-04T10:57:41.474Z,1.30
2022-08-04T11:00:49.241Z,1.10
2022-08-04T11:02:50.187Z,0.98
2022-08-04T11:04:29.393Z,1.33
2022-08-04T11:06:04.258Z,1.40
2022-08-04T11:07:39.037Z,1.20
2022-08-04T11:09:13.967Z,1.02
2022-08-04T11:10:51.627Z,1.20
2022-08-04T11:12:28.063Z,1.17
2022-08-04T11:14:06.937Z,1.30
2022-08-04T11:15:45.012Z,1.17
2022-08-04T11:17:24.536Z,1.20
2022-08-04T11:19:44.784Z,1.05
2022-08-04T11:21:53.450Z,1.27
2022-08-04T11:23:33.585Z,1.17
2022-08-04T11:25:25.398Z,1.05
2022-08-04T11:27:01.084Z,1.35
2022-08-04T11:29:03.157Z,1.30
2022-08-04T11:30:42.858Z,1.23
2022-08-04T11:32:26.709Z,1.13
2022-08-04T11:34:23.791Z,1.27
2022-08-04T11:35:55.360Z,1.00
2022-08-04T11:37:36.204Z,1.40
2022-08-04T11:39:35.662Z,1.30
2022-08-04T11:41:17.411Z,1.30
2022-08-04T11:42:56.674Z,1.13
2022-08-04T11:44:48.164Z,1.20
2022-08-04T11:46:28.465Z,1.60
2022-08-04T11:48:19.858Z,1.60
2022-08-04T11:50:14.736Z,1.20
2022-08-04T11:51:47.880Z,1.27
2022-08-04T11:53:23.636Z,1.10
2022-08-04T11:54:57.609Z,1.10
2022-08-04T11:56:36.743Z,1.17
2022-08-04T11:58:09.577Z,1.25
2022-08-04T11:59:43.235Z,1.17
2022-08-04T12:01:47.699Z,1.23
2022-08-04T12:03:32.668Z,1.13
2022-08-04T12:05:35.561Z,1.20
2022-08-04T12:07:41.241Z,1.00
2022-08-04T12:09:10.383Z,1.17
2022-08-04T12:10:45.849Z,1.40
2022-08-04T12:12:37.714Z,1.17
2022-08-04T12:14:21.356Z,1.13
2022-08-04T12:16:01.918Z,1.60
2022-08-04T12:17:57.283Z,1.20
2022-08-04T12:20:03.231Z,1.23
2022-08-04T12:21:53.257Z,1.27
2022-08-04T12:23:36.018Z,1.13
2022-08-04T12:25:08.830Z,1.00
2022-08-04T12:26:46.106Z,1.10
2022-08-04T12:28:52.672Z,1.20
2022-08-04T12:30:59.445Z,1.23
2022-08-04T12:32:25.764Z,1.38
2022-08-04T12:34:06.624Z,1.20
2022-08-04T12:36:24.863Z,1.38
2022-08-04T12:38:15.860Z,1.30
2022-08-04T12:40:29.686Z,1.05
2022-08-04T12:42:04.996Z,1.23
2022-08-04T12:43:42.224Z,1.40
2022-08-04T12:45:15.352Z,1.25
2022-08-04T12:46:47.912Z,1.10
2022-08-04T12:48:21.778Z,1.27
2022-08-04T12:50:01.311Z,1.20
2022-08-04T12:52:07.979Z,1.30
2022-08-04T12:53:51.199Z,1.58
2022-08-04T12:55:27.420Z,1.40
2022-08-04T12:57:01.401Z,1.27
2022-08-04T12:58:42.997Z,1.38
2022-08-04T13:00:33.222Z,1.20
2022-08-04T13:02:14.955Z,1.27
2022-08-04T13:03:57.958Z,1.20
2022-08-04T13:05:31.188Z,1.40
2022-08-04T13:07:13.712Z,1.20
2022-08-04T13:08:46.822Z,1.10
2022-08-04T13:10:22.232Z,1.30
2022-08-04T13:12:06.230Z,1.10
2022-08-04T13:13:39.626Z,1.40
2022-08-04T13:15:20.652Z,1.17
2022-08-04T13:17:00.900Z,1.20
2022-08-04T13:18:36.808Z,1.10
2022-08-04T13:20:08.783Z,1.10
2022-08-04T13:21:50.183Z,1.40
2022-08-04T13:23:36.129Z,1.23
2022-08-04T13:26:43.430Z,1.17
2022-08-04T13:27:22.770Z,1.05
2022-08-04T13:28:58.053Z,1.30
2022-08-04T13:30:32.697Z,1.20
2022-08-04T13:32:05.853Z,1.20
2022-08-04T13:33:41.119Z,1.33
2022-08-04T13:35:13.410Z,1.50
2022-08-04T13:36:46.545Z,1.40
2022-08-04T13:38:19.792Z,1.30
2022-08-04T13:39:55.878Z,1.52
2022-08-04T13:41:31.239Z,1.30
2022-08-04T13:43:04.107Z,1.40
2022-08-04T13:44:36.915Z,1.30
2022-08-04T13:46:13.061Z,1.35
2022-08-04T13:47:48.524Z,1.35
2022-08-04T13:49:38.151Z,1.38
2022-08-04T13:51:12.620Z,1.40
2022-08-04T13:52:45.472Z,1.30
2022-08-04T13:54:17.241Z,1.30
2022-08-04T13:55:49.760Z,1.30
2022-08-04T13:57:36.535Z,1.52
2022-08-04T13:59:13.504Z,1.25
2022-08-04T14:00:49.931Z,1.30
2022-08-04T14:02:44.328Z,1.45
2022-08-04T14:04:20.543Z,1.20
2022-08-04T14:06:24.436Z,1.25
2022-08-04T14:08:06.714Z,1.30
2022-08-04T14:09:39.956Z,1.30
2022-08-04T14:12:10.464Z,1.30
2022-08-04T14:13:41.474Z,1.07
2022-08-04T14:16:01.823Z,1.77
2022-08-04T14:17:35.562Z,1.02
2022-08-04T14:19:07.568Z,1.40
2022-08-04T14:21:05.116Z,1.40
2022-08-04T14:22:37.076Z,1.30
2022-08-04T14:24:08.735Z,1.27
2022-08-04T14:25:40.395Z,1.27
2022-08-04T14:27:12.012Z,1.60
2022-08-04T14:29:25.037Z,1.20
2022-08-04T14:30:37.876Z,1.30
2022-08-04T14:32:21.627Z,1.08
2022-08-04T14:34:01.062Z,1.20
2022-08-04T14:35:50.570Z,1.25
2022-08-04T14:37:23.325Z,1.30
2022-08-04T14:38:58.377Z,1.27
2022-08-04T14:40:36.950Z,1.17
2022-08-04T14:42:08.908Z,1.13
2022-08-04T14:43:47.230Z,1.05
2022-08-04T14:45:18.959Z,1.08
2022-08-04T14:46:52.430Z,1.08
2022-08-04T14:48:25.313Z,1.30
2022-08-04T14:49:56.954Z,1.05
2022-08-04T14:51:36.339Z,1.40
2022-08-04T14:53:14.502Z,1.05
2022-08-04T14:54:49.002Z,1.20
2022-08-04T14:56:45.115Z,1.10
2022-08-04T14:58:35.690Z,1.10
2022-08-04T15:00:13.566Z,1.35
2022-08-04T15:02:00.899Z,1.10
2022-08-04T15:03:33.531Z,1.10
2022-08-04T15:06:01.676Z,1.40
2022-08-04T15:06:57.890Z,1.05
2022-08-04T15:08:31.510Z,1.20
2022-08-04T15:10:03.850Z,1.15
2022-08-04T15:11:41.519Z,1.45
2022-08-04T15:13:15.606Z,1.40
2022-08-04T15:14:47.250Z,1.30
2022-08-04T15:16:20.501Z,1.30
2022-08-04T15:17:53.430Z,1.30
2022-08-04T15:19:26.088Z,1.20
2022-08-04T15:20:58.899Z,1.40
2022-08-04T15:22:30.892Z,1.30
2022-08-04T15:24:03.015Z,1.10
2022-08-04T15:25:40.969Z,1.20
2022-08-04T15:27:14.268Z,1.10
2022-08-04T15:28:51.663Z,1.10
2022-08-04T15:30:23.481Z,1.40
2022-08-04T15:32:05.381Z,1.17
2022-08-04T15:33:41.680Z,1.30
2022-08-04T15:35:23.391Z,1.30
2022-08-04T15:37:03.793Z,1.17
2022-08-04T15:38:43.345Z,1.40
2022-08-04T15:40:32.928Z,1.63
2022-08-04T15:42:21.910Z,1.40
2022-08-04T15:44:30.760Z,1.15
2022-08-04T15:46:43.355Z,1.33
2022-08-04T15:48:16.614Z,1.35
2022-08-04T15:50:07.972Z,1.38
2022-08-04T15:51:40.177Z,1.35
2022-08-04T15:53:13.098Z,1.20
2022-08-04T15:54:52.642Z,1.20
2022-08-04T15:56:24.719Z,1.25
2022-08-04T15:58:00.837Z,1.15
2022-08-04T16:00:00.804Z,1.40
2022-08-04T16:01:32.550Z,1.25
2022-08-04T16:03:55.382Z,1.30
2022-08-04T16:05:17.892Z,1.30
2022-08-04T16:06:50.219Z,1.33
2022-08-04T16:08:21.957Z,1.33
2022-08-04T16:09:53.580Z,1.48
2022-08-04T16:11:31.798Z,1.45
2022-08-04T16:13:07.665Z,1.40
2022-08-04T16:14:39.381Z,1.40
2022-08-04T16:16:26.566Z,1.40
2022-08-04T16:17:59.104Z,1.30
2022-08-04T16:19:51.722Z,1.35
2022-08-04T16:21:25.562Z,1.30
2022-08-04T16:23:00.938Z,1.50
2022-08-04T16:24:40.232Z,1.30
2022-08-04T16:26:12.685Z,1.25
2022-08-04T16:27:44.676Z,1.27
2022-08-04T16:29:47.072Z,1.30
2022-08-04T16:31:18.728Z,1.30
2022-08-04T16:32:52.007Z,1.20
2022-08-04T16:34:47.721Z,1.20
2022-08-04T16:36:16.774Z,1.20
2022-08-04T16:37:53.360Z,1.20
2022-08-04T16:39:25.003Z,1.30
2022-08-04T16:41:01.028Z,1.60
2022-08-04T16:42:34.756Z,1.20
2022-08-04T16:44:52.802Z,1.20
2022-08-04T16:47:22.136Z,1.50
2022-08-04T16:48:35.649Z,1.33
2022-08-04T16:50:07.911Z,1.40
2022-08-04T16:51:39.591Z,1.35
2022-08-04T16:53:14.643Z,3.22
2022-08-04T16:55:06.219Z,1.58
2022-08-04T16:56:37.989Z,1.67
2022-08-04T16:58:09.802Z,1.40
2022-08-04T16:59:51.231Z,1.50
2022-08-04T17:01:33.064Z,1.40
2022-08-04T17:03:07.237Z,1.27
2022-08-04T17:04:38.880Z,1.27
2022-08-04T17:06:14.363Z,1.50
2022-08-04T17:08:26.912Z,1.27
2022-08-04T17:09:51.701Z,1.50
2022-08-04T17:11:32.725Z,1.60
2022-08-04T17:14:02.203Z,1.35
2022-08-04T17:15:23.361Z,1.20
2022-08-04T17:16:58.660Z,1.50
2022-08-04T17:18:36.990Z,1.45
2022-08-04T17:20:08.959Z,1.30
2022-08-04T17:21:40.697Z,1.45
2022-08-04T17:24:14.060Z,1.40
2022-08-04T17:25:51.646Z,1.30
2022-08-04T17:28:09.179Z,1.58
2022-08-04T17:29:08.338Z,1.33
2022-08-04T17:30:47.860Z,1.70
2022-08-04T17:32:23.904Z,1.40
2022-08-04T17:33:58.122Z,1.30
2022-08-04T17:35:38.763Z,1.42
2022-08-04T17:37:39.416Z,1.42
2022-08-04T17:39:16.516Z,1.60
2022-08-04T17:41:11.670Z,1.52
2022-08-04T17:44:00.926Z,1.65
2022-08-04T17:45:41.461Z,1.48
2022-08-04T17:47:12.805Z,1.30
2022-08-04T17:48:44.903Z,1.40
2022-08-04T17:50:33.318Z,1.38
2022-08-04T17:52:14.673Z,1.35
2022-08-04T17:54:02.166Z,1.38
2022-08-04T17:55:43.643Z,1.45
2022-08-04T17:57:21.891Z,1.50
2022-08-04T17:59:16.337Z,1.35
2022-08-04T18:03:03.192Z,1.60
2022-08-04T18:04:41.274Z,1.33
2022-08-04T18:06:32.971Z,1.40
2022-08-04T18:08:34.470Z,1.40
2022-08-04T18:10:28.870Z,1.50
2022-08-04T18:14:02.881Z,1.20
2022-08-04T18:15:44.414Z,1.20
2022-08-04T18:18:19.752Z,1.30
2022-08-04T18:19:31.691Z,1.42
2022-08-04T18:21:05.082Z,1.15
2022-08-04T18:22:37.835Z,1.35
2022-08-04T18:24:11.429Z,1.50
2022-08-04T18:25:51.389Z,1.60
2022-08-04T18:27:26.577Z,1.30
2022-08-04T18:29:02.080Z,1.30
2022-08-04T18:30:54.063Z,1.40
2022-08-04T18:32:33.429Z,1.45
2022-08-04T18:34:10.695Z,1.50
2022-08-04T18:36:34.922Z,1.20
2022-08-04T18:38:05.146Z,1.27
2022-08-04T18:40:25.116Z,1.40
2022-08-04T18:41:22.275Z,1.75
2022-08-04T18:42:54.179Z,1.25
2022-08-04T18:44:27.468Z,1.35
2022-08-04T18:45:59.979Z,1.30
2022-08-04T18:47:31.802Z,1.20
2022-08-04T18:50:58.643Z,1.30
2022-08-04T18:53:10.426Z,1.40
2022-08-04T18:54:42.145Z,1.25
2022-08-04T18:56:20.029Z,1.13
2022-08-04T18:58:07.817Z,1.33
2022-08-04T18:59:46.477Z,1.17
2022-08-04T19:01:18.255Z,1.50
2022-08-04T19:02:50.177Z,1.35
2022-08-04T19:04:33.555Z,1.10
2022-08-04T19:06:08.560Z,1.30
2022-08-04T19:08:02.613Z,1.13
2022-08-04T19:09:51.129Z,1.50
2022-08-04T19:11:54.101Z,1.30
2022-08-04T19:13:25.485Z,1.20
2022-08-04T19:15:08.864Z,1.10
2022-08-04T19:16:46.084Z,1.30
2022-08-04T19:18:19.039Z,1.30
2022-08-04T19:19:50.656Z,1.20
2022-08-04T19:22:00.283Z,1.20
2022-08-04T19:24:10.623Z,1.30
2022-08-04T19:25:06.437Z,1.38
2022-08-04T19:26:40.794Z,1.60
2022-08-04T19:28:20.797Z,1.42
2022-08-04T19:29:53.354Z,1.30
2022-08-04T19:31:40.148Z,1.20
2022-08-04T19:33:13.697Z,1.40
2022-08-04T19:34:48.667Z,1.30
2022-08-04T19:36:27.959Z,1.17
2022-08-04T19:38:03.914Z,1.30
2022-08-04T19:39:36.069Z,1.10
2022-08-04T19:41:14.294Z,1.40
2022-08-04T19:42:46.722Z,1.50
2022-08-04T19:44:23.556Z,1.30
2022-08-04T19:45:55.821Z,1.27
2022-08-04T19:48:11.109Z,1.25
2022-08-04T19:50:05.198Z,1.20
2022-08-04T19:51:11.132Z,1.58
2022-08-04T19:52:51.722Z,1.52
2022-08-04T19:55:59.163Z,1.17
2022-08-04T19:57:35.220Z,1.20
2022-08-04T19:59:07.442Z,1.30
2022-08-04T20:00:40.820Z,1.23
2022-08-04T20:02:22.807Z,1.30
2022-08-04T20:04:08.890Z,1.23
2022-08-04T20:05:54.528Z,1.35
2022-08-04T20:07:27.781Z,1.30
2022-08-04T20:09:00.426Z,1.52
2022-08-04T20:10:32.426Z,1.30
2022-08-04T20:12:04.514Z,1.23
2022-08-04T20:13:38.785Z,1.27
2022-08-04T20:15:12.441Z,1.50
2022-08-04T20:16:46.691Z,1.40
2022-08-04T20:18:36.527Z,1.20
2022-08-04T20:20:10.774Z,1.77
2022-08-04T20:21:55.049Z,1.50
2022-08-04T20:23:47.858Z,1.63
2022-08-04T20:25:36.447Z,1.35
2022-08-04T20:27:15.122Z,1.27
2022-08-04T20:28:52.027Z,1.08
2022-08-04T20:30:28.446Z,1.23
2022-08-04T20:32:05.254Z,1.30
2022-08-04T20:33:40.268Z,1.33
2022-08-04T20:35:25.902Z,1.63
2022-08-04T20:36:58.699Z,1.40
2022-08-04T20:38:33.743Z,1.55
2022-08-04T20:40:06.567Z,1.30
2022-08-04T20:41:38.170Z,1.40
2022-08-04T20:43:09.822Z,1.60
2022-08-04T20:44:42.246Z,1.38
2022-08-04T20:46:29.419Z,1.50
2022-08-04T20:48:01.574Z,1.40
2022-08-04T20:49:35.191Z,1.30
2022-08-04T20:51:07.085Z,1.75
2022-08-04T20:52:39.529Z,1.50
2022-08-04T20:54:16.578Z,1.58
2022-08-04T20:55:55.005Z,1.40
2022-08-04T20:57:50.047Z,1.30
2022-08-04T20:59:19.970Z,1.20
2022-08-04T21:00:53.390Z,1.20
2022-08-04T21:02:25.154Z,1.40
2022-08-04T21:04:27.878Z,1.40
2022-08-04T21:06:00.329Z,1.50
2022-08-04T21:07:36.362Z,1.50
2022-08-04T21:09:15.623Z,1.60
2022-08-04T21:10:58.417Z,1.45
2022-08-04T21:12:32.066Z,1.30
2022-08-04T21:14:05.556Z,1.63
2022-08-04T21:15:57.813Z,1.30
2022-08-04T21:17:59.525Z,1.52
2022-08-04T21:19:22.427Z,1.35
2022-08-04T21:20:56.185Z,1.60
2022-08-04T21:22:29.818Z,1.23
2022-08-04T21:24:05.546Z,1.67
2022-08-04T21:25:39.148Z,1.52
2022-08-04T21:27:15.113Z,1.55
2022-08-04T21:28:47.240Z,1.50
2022-08-04T21:30:25.968Z,1.08
2022-08-04T21:31:57.831Z,1.50
2022-08-04T21:33:50.970Z,1.50
2022-08-04T21:35:21.122Z,1.30
2022-08-04T21:37:01.674Z,1.50
2022-08-04T21:38:33.310Z,1.50
2022-08-04T21:40:13.719Z,1.48
2022-08-04T21:42:28.031Z,1.35
2022-08-04T21:43:43.193Z,1.20
2022-08-04T21:45:16.320Z,1.30
2022-08-04T21:46:51.132Z,1.30
2022-08-04T21:48:27.570Z,1.30
2022-08-04T21:49:59.378Z,1.55
2022-08-04T21:53:27.786Z,1.75
2022-08-04T21:54:59.474Z,1.60
2022-08-04T21:56:33.128Z,1.60
2022-08-04T21:58:04.848Z,1.73
2022-08-04T21:59:45.155Z,1.50
2022-08-04T22:01:21.751Z,1.20
2022-08-04T22:03:18.669Z,1.40
2022-08-04T22:05:00.722Z,1.33
2022-08-04T22:06:32.349Z,1.60
2022-08-04T22:08:04.319Z,1.77
2022-08-04T22:09:38.625Z,1.50
2022-08-04T22:11:48.830Z,1.67
2022-08-04T22:13:22.742Z,1.40
2022-08-04T22:14:57.684Z,1.30
2022-08-04T22:16:31.631Z,1.70
2022-08-04T22:18:04.731Z,1.35
2022-08-04T22:19:40.265Z,1.50
2022-08-04T22:21:28.259Z,1.45
2022-08-04T22:23:15.338Z,1.13
2022-08-04T22:24:48.364Z,1.58
2022-08-04T22:26:26.803Z,1.88
2022-08-04T22:28:02.666Z,1.70
2022-08-04T22:29:34.526Z,1.67
2022-08-04T22:31:23.739Z,1.65
2022-08-04T22:32:56.757Z,1.55
2022-08-04T22:34:30.504Z,1.23
2022-08-04T22:36:02.237Z,1.70
2022-08-04T22:37:36.003Z,1.60
2022-08-04T22:39:15.018Z,1.38
2022-08-04T22:40:47.708Z,2.00
2022-08-04T22:42:21.797Z,1.52
2022-08-04T22:43:54.643Z,1.55
2022-08-04T22:45:28.716Z,1.48
2022-08-04T22:47:01.175Z,1.60
2022-08-04T22:48:34.975Z,1.50
2022-08-04T22:50:27.608Z,1.40
2022-08-04T22:51:59.858Z,1.60
2022-08-04T22:53:41.834Z,1.40
2022-08-04T22:55:20.641Z,1.48
2022-08-04T22:56:52.250Z,1.48
2022-08-04T22:58:28.504Z,1.52